createdAt,value
2024-01-27T00:01:22.314Z,5.87
2024-01-27T00:03:51.408Z,4.90
2024-01-27T00:06:19.389Z,3.87
2024-01-27T00:08:47.434Z,3.63
2024-01-27T00:11:15.320Z,2.93
2024-01-27T00:13:43.240Z,2.67
2024-01-27T00:16:11.226Z,2.53
2024-01-27T00:18:41.035Z,2.93
2024-01-27T00:21:09.416Z,1.90
2024-01-27T00:23:37.349Z,1.77
2024-01-27T00:26:05.764Z,1.57
2024-01-27T00:28:33.661Z,1.33
2024-01-27T00:31:01.589Z,1.00
2024-01-27T00:33:29.525Z,1.27
2024-01-27T00:35:58.798Z,1.43
2024-01-27T00:38:27.148Z,1.23
2024-01-27T00:40:55.126Z,1.10
2024-01-27T00:43:23.024Z,1.20
2024-01-27T00:45:50.805Z,1.33
2024-01-27T00:48:18.904Z,1.20
2024-01-27T00:50:46.925Z,1.27
2024-01-27T00:53:16.265Z,1.20
2024-01-27T00:55:44.432Z,1.40
2024-01-27T00:58:12.261Z,1.33
2024-01-27T01:00:40.219Z,1.40
2024-01-27T01:03:08.141Z,1.23
2024-01-27T01:05:36.108Z,1.80
2024-01-27T01:08:04.450Z,1.60
2024-01-27T01:10:34.375Z,1.57
2024-01-27T01:13:02.239Z,1.40
2024-01-27T01:15:30.323Z,1.70
2024-01-27T01:17:58.292Z,1.50
2024-01-27T01:20:27.296Z,1.77
2024-01-27T01:22:55.479Z,1.60
2024-01-27T01:25:23.337Z,1.17
2024-01-27T01:27:53.681Z,1.50
2024-01-27T01:30:21.678Z,1.80
2024-01-27T01:32:49.841Z,1.87
2024-01-27T01:35:17.806Z,1.67
2024-01-27T01:37:45.642Z,1.57
2024-01-27T01:40:13.873Z,1.70
2024-01-27T01:42:41.768Z,1.43
2024-01-27T01:45:14.136Z,1.40
2024-01-27T01:47:43.108Z,1.53
2024-01-27T01:50:11.653Z,1.40
2024-01-27T01:52:40.992Z,1.30
2024-01-27T01:55:09.471Z,1.70
2024-01-27T01:57:37.942Z,1.90
2024-01-27T02:00:07.521Z,1.50
2024-01-27T02:02:36.821Z,1.70
2024-01-27T02:05:05.037Z,1.77
2024-01-27T02:07:32.951Z,1.77
2024-01-27T02:10:00.861Z,1.60
2024-01-27T02:12:28.884Z,2.87
2024-01-27T02:14:57.036Z,1.53
2024-01-27T02:17:24.879Z,1.60
2024-01-27T02:19:54.232Z,1.60
2024-01-27T02:22:22.093Z,1.77
2024-01-27T02:24:51.425Z,2.47
2024-01-27T02:27:19.245Z,2.00
2024-01-27T02:29:47.325Z,2.27
2024-01-27T02:32:15.244Z,2.60
2024-01-27T02:34:43.304Z,1.87
2024-01-27T02:37:11.457Z,2.07
2024-01-27T02:39:39.331Z,2.00
2024-01-27T02:42:08.537Z,2.17
2024-01-27T02:44:36.399Z,1.63
2024-01-27T02:47:04.362Z,1.57
2024-01-27T02:49:32.334Z,1.87
2024-01-27T02:52:00.253Z,1.90
2024-01-27T02:54:28.751Z,2.60
2024-01-27T02:56:57.079Z,1.80
2024-01-27T02:59:26.476Z,1.57
2024-01-27T03:01:54.252Z,2.07
2024-01-27T03:04:22.915Z,2.00
2024-01-27T03:06:50.925Z,1.97
2024-01-27T03:09:19.421Z,2.50
2024-01-27T03:11:47.292Z,1.47
2024-01-27T03:14:15.605Z,1.60
2024-01-27T03:16:45.597Z,2.10
2024-01-27T03:19:13.764Z,2.27
2024-01-27T03:21:41.983Z,1.97
2024-01-27T03:24:10.015Z,2.40
2024-01-27T03:26:37.866Z,1.63
2024-01-27T03:29:05.894Z,2.30
2024-01-27T03:31:34.365Z,1.67
2024-01-27T03:34:05.079Z,2.30
2024-01-27T03:36:33.135Z,2.17
2024-01-27T03:39:01.750Z,2.30
2024-01-27T03:41:29.704Z,2.87
2024-01-27T03:43:57.633Z,2.00
2024-01-27T03:46:25.566Z,2.07
2024-01-27T03:48:53.508Z,3.07
2024-01-27T03:51:24.406Z,1.97
2024-01-27T03:53:52.360Z,2.73
2024-01-27T03:56:20.335Z,2.37
2024-01-27T03:58:48.243Z,2.70
2024-01-27T04:01:17.364Z,1.83
2024-01-27T04:03:45.302Z,2.30
2024-01-27T04:06:13.242Z,1.83
2024-01-27T04:08:44.935Z,2.50
2024-01-27T04:11:21.166Z,2.40
2024-01-27T04:13:49.994Z,3.23
2024-01-27T04:16:17.946Z,2.03
2024-01-27T04:18:46.082Z,1.90
2024-01-27T04:21:14.044Z,1.87
2024-01-27T04:23:43.330Z,2.13
2024-01-27T04:26:11.837Z,2.10
2024-01-27T04:28:40.096Z,2.10
2024-01-27T04:31:07.997Z,2.20
2024-01-27T04:33:36.002Z,2.80
2024-01-27T04:36:04.070Z,2.40
2024-01-27T04:38:31.984Z,2.20
2024-01-27T04:41:01.268Z,2.90
2024-01-27T04:43:30.007Z,1.87
2024-01-27T04:45:57.830Z,1.80
2024-01-27T04:48:25.766Z,2.33
2024-01-27T04:50:53.775Z,2.27
2024-01-27T04:53:21.728Z,2.23
2024-01-27T04:55:49.678Z,2.60
2024-01-27T04:58:18.862Z,2.43
2024-01-27T05:00:47.259Z,2.30
2024-01-27T05:03:15.969Z,2.73
2024-01-27T05:05:44.447Z,2.50
2024-01-27T05:08:12.471Z,2.57
2024-01-27T05:10:40.472Z,2.50
2024-01-27T05:13:08.349Z,2.73
2024-01-27T05:15:37.624Z,1.97
2024-01-27T05:18:06.162Z,2.53
2024-01-27T05:20:34.065Z,2.17
2024-01-27T05:23:01.851Z,3.47
2024-01-27T05:25:29.768Z,2.87
2024-01-27T05:27:57.613Z,2.70
2024-01-27T05:30:25.436Z,2.27
2024-01-27T05:32:54.791Z,1.77
2024-01-27T05:35:22.755Z,2.60
2024-01-27T05:37:51.452Z,1.90
2024-01-27T05:40:19.339Z,2.47
2024-01-27T05:42:47.434Z,2.87
2024-01-27T05:45:15.429Z,2.77
2024-01-27T05:47:43.510Z,2.70
2024-01-27T05:50:13.139Z,2.30
2024-01-27T05:52:40.984Z,2.17
2024-01-27T05:55:09.669Z,2.77
2024-01-27T05:57:37.842Z,2.33
2024-01-27T06:00:06.864Z,3.03
2024-01-27T06:02:34.797Z,2.50
2024-01-27T06:05:02.868Z,2.10
2024-01-27T06:07:32.320Z,2.53
2024-01-27T06:10:00.319Z,2.53
2024-01-27T06:12:28.237Z,2.80
2024-01-27T06:14:56.159Z,2.20
2024-01-27T06:17:23.954Z,2.73
2024-01-27T06:19:51.851Z,2.20
2024-01-27T06:22:19.758Z,2.77
2024-01-27T06:24:49.204Z,3.03
2024-01-27T06:27:17.094Z,3.03
2024-01-27T06:29:45.250Z,2.10
2024-01-27T06:32:13.819Z,2.97
2024-01-27T06:34:41.966Z,2.50
2024-01-27T06:37:09.880Z,2.23
2024-01-27T06:39:37.800Z,2.83
2024-01-27T06:42:07.224Z,2.83
2024-01-27T06:44:35.079Z,2.60
2024-01-27T06:47:02.832Z,2.90
2024-01-27T06:49:30.746Z,2.80
2024-01-27T06:51:58.660Z,2.70
2024-01-27T06:54:26.659Z,3.10
2024-01-27T06:56:54.581Z,2.30
2024-01-27T06:59:23.812Z,2.57
2024-01-27T07:01:51.805Z,2.70
2024-01-27T07:04:19.990Z,2.67
2024-01-27T07:06:47.965Z,3.23
2024-01-27T07:09:16.020Z,3.20
2024-01-27T07:11:43.931Z,2.93
2024-01-27T07:14:11.805Z,2.70
2024-01-27T07:16:40.985Z,3.30
2024-01-27T07:19:09.001Z,3.47
2024-01-27T07:21:36.980Z,2.97
2024-01-27T07:24:05.791Z,3.17
2024-01-27T07:26:33.630Z,2.87
2024-01-27T07:29:01.586Z,3.87
2024-01-27T07:31:29.456Z,2.70
2024-01-27T07:33:58.790Z,2.33
2024-01-27T07:36:27.278Z,3.13
2024-01-27T07:38:55.141Z,2.20
2024-01-27T07:41:23.008Z,2.60
2024-01-27T07:43:50.779Z,3.07
2024-01-27T07:46:21.038Z,2.50
2024-01-27T07:48:49.872Z,2.90
2024-01-27T07:51:19.367Z,3.30
2024-01-27T07:53:47.228Z,2.90
2024-01-27T07:56:15.070Z,2.67
2024-01-27T07:58:43.067Z,2.23
2024-01-27T08:01:10.987Z,2.73
2024-01-27T08:03:39.127Z,2.80
2024-01-27T08:06:10.560Z,3.33
2024-01-27T08:08:39.876Z,2.60
2024-01-27T08:11:07.711Z,3.10
2024-01-27T08:13:35.513Z,3.87
2024-01-27T08:16:03.808Z,2.90
2024-01-27T08:18:31.759Z,3.10
2024-01-27T08:20:59.694Z,3.30
2024-01-27T08:23:27.624Z,3.20
2024-01-27T08:25:56.994Z,3.10
2024-01-27T08:28:25.057Z,3.37
2024-01-27T08:30:52.943Z,3.23
2024-01-27T08:33:21.108Z,3.30
2024-01-27T08:35:49.908Z,3.53
2024-01-27T08:38:17.779Z,4.00
2024-01-27T08:40:45.849Z,3.77
2024-01-27T08:43:15.021Z,3.77
2024-01-27T08:45:43.132Z,3.87
2024-01-27T08:48:11.316Z,3.80
2024-01-27T08:50:39.506Z,3.50
2024-01-27T08:53:07.528Z,3.30
2024-01-27T08:55:35.463Z,3.27
2024-01-27T08:58:03.274Z,3.50
2024-01-27T09:00:32.578Z,3.23
2024-01-27T09:03:00.545Z,3.90
2024-01-27T09:05:29.331Z,3.33
2024-01-27T09:07:57.504Z,3.30
2024-01-27T09:10:25.419Z,3.03
2024-01-27T09:12:53.593Z,2.90
2024-01-27T09:15:21.520Z,3.00
2024-01-27T09:17:51.033Z,2.93
2024-01-27T09:20:19.059Z,3.30
2024-01-27T09:22:48.673Z,2.87
2024-01-27T09:25:16.535Z,3.00
2024-01-27T09:27:44.516Z,2.63
2024-01-27T09:30:13.274Z,2.90
2024-01-27T09:32:42.059Z,2.60
2024-01-27T09:35:11.507Z,2.80
2024-01-27T09:37:39.430Z,3.27
2024-01-27T09:40:09.889Z,2.33
2024-01-27T09:42:40.686Z,2.50
2024-01-27T09:45:11.137Z,2.07
2024-01-27T09:47:40.583Z,2.43
2024-01-27T09:50:14.446Z,1.70
2024-01-27T09:52:42.441Z,1.80
2024-01-27T09:55:11.640Z,2.10
2024-01-27T09:57:40.911Z,2.20
2024-01-27T10:00:13.204Z,1.70
2024-01-27T10:02:42.910Z,1.33
2024-01-27T10:05:11.346Z,1.97
2024-01-27T10:07:41.692Z,1.97
2024-01-27T10:10:09.906Z,3.23
2024-01-27T10:12:43.150Z,1.53
2024-01-27T10:15:21.320Z,1.30
2024-01-27T10:17:49.258Z,1.63
2024-01-27T10:20:19.903Z,1.77
2024-01-27T10:22:49.344Z,1.93
2024-01-27T10:25:18.232Z,1.90
2024-01-27T10:27:47.096Z,1.77
2024-01-27T10:30:19.568Z,2.20
2024-01-27T10:32:58.289Z,1.90
2024-01-27T10:35:26.721Z,1.50
2024-01-27T10:37:59.414Z,1.83
2024-01-27T10:40:29.249Z,2.77
2024-01-27T10:43:03.801Z,1.80
2024-01-27T10:45:37.436Z,1.83
2024-01-27T10:48:07.412Z,1.70
2024-01-27T10:50:41.733Z,1.50
2024-01-27T10:53:24.908Z,2.20
2024-01-27T10:55:55.541Z,1.90
2024-01-27T10:58:25.280Z,1.87
2024-01-27T11:00:55.002Z,1.57
2024-01-27T11:03:25.323Z,1.80
2024-01-27T11:05:54.823Z,1.83
2024-01-27T11:08:29.596Z,1.80
2024-01-27T11:10:58.562Z,1.50
2024-01-27T11:13:28.123Z,1.77
2024-01-27T11:15:56.427Z,1.33
2024-01-27T11:18:24.441Z,1.53
2024-01-27T11:20:55.318Z,1.50
2024-01-27T11:23:34.505Z,1.83
2024-01-27T11:26:07.034Z,1.33
2024-01-27T11:28:35.233Z,1.70
2024-01-27T11:31:06.134Z,1.40
2024-01-27T11:33:34.316Z,1.87
2024-01-27T11:36:03.572Z,1.70
2024-01-27T11:38:33.755Z,1.67
2024-01-27T11:41:02.428Z,2.20
2024-01-27T11:43:30.417Z,1.67
2024-01-27T11:45:58.969Z,1.80
2024-01-27T11:48:27.088Z,3.03
2024-01-27T11:51:07.222Z,3.67
2024-01-27T11:53:36.589Z,2.13
2024-01-27T11:56:05.892Z,1.70
2024-01-27T11:58:33.855Z,1.90
2024-01-27T12:01:02.537Z,1.90
2024-01-27T12:03:31.898Z,1.80
2024-01-27T12:06:00.124Z,1.70
2024-01-27T12:08:29.146Z,1.73
2024-01-27T12:10:58.541Z,1.53
2024-01-27T12:13:26.649Z,1.53
2024-01-27T12:15:54.694Z,1.70
2024-01-27T12:18:23.592Z,2.33
2024-01-27T12:20:57.141Z,2.40
2024-01-27T12:23:25.109Z,2.10
2024-01-27T12:25:55.949Z,1.87
2024-01-27T12:28:25.853Z,2.10
2024-01-27T12:30:55.494Z,2.93
2024-01-27T12:33:25.933Z,3.60
2024-01-27T12:35:55.811Z,2.10
2024-01-27T12:38:24.499Z,2.33
2024-01-27T12:40:52.310Z,2.50
2024-01-27T12:43:20.234Z,2.60
2024-01-27T12:45:49.965Z,2.20
2024-01-27T12:48:18.087Z,2.50
2024-01-27T12:50:46.010Z,3.00
2024-01-27T12:53:13.886Z,2.87
2024-01-27T12:55:41.964Z,2.80
2024-01-27T12:58:09.861Z,2.30
2024-01-27T13:00:37.896Z,2.60
2024-01-27T13:03:07.371Z,2.67
2024-01-27T13:05:35.546Z,2.57
2024-01-27T13:08:05.440Z,2.37
2024-01-27T13:10:33.312Z,1.93
2024-01-27T13:13:01.135Z,2.60
2024-01-27T13:15:29.030Z,2.20
2024-01-27T13:17:57.036Z,2.27
2024-01-27T13:20:26.637Z,2.30
2024-01-27T13:22:54.880Z,2.10
2024-01-27T13:25:22.737Z,1.90
2024-01-27T13:27:50.724Z,2.30
2024-01-27T13:30:19.649Z,2.13
2024-01-27T13:32:47.687Z,2.83
2024-01-27T13:35:16.052Z,2.13
2024-01-27T13:37:47.069Z,2.40
2024-01-27T13:40:15.841Z,2.70
2024-01-27T13:42:43.791Z,2.17
2024-01-27T13:45:12.453Z,2.70
2024-01-27T13:47:40.645Z,2.20
2024-01-27T13:50:09.589Z,2.50
2024-01-27T13:52:37.591Z,1.93
2024-01-27T13:55:07.921Z,2.17
2024-01-27T13:57:35.803Z,1.83
2024-01-27T14:00:04.823Z,2.10
2024-01-27T14:02:33.433Z,2.27
2024-01-27T14:05:02.049Z,2.10
2024-01-27T14:07:30.021Z,2.20
2024-01-27T14:09:58.082Z,2.10
2024-01-27T14:12:27.398Z,2.80
2024-01-27T14:14:55.887Z,2.00
2024-01-27T14:17:23.703Z,1.90
2024-01-27T14:19:51.890Z,1.77
2024-01-27T14:22:19.889Z,1.60
2024-01-27T14:24:47.784Z,1.97
2024-01-27T14:27:16.217Z,1.97
2024-01-27T14:29:45.575Z,1.50
2024-01-27T14:32:13.640Z,1.40
2024-01-27T14:34:41.522Z,2.07
2024-01-27T14:37:11.070Z,1.40
2024-01-27T14:39:40.026Z,1.10
2024-01-27T14:42:09.445Z,1.57
2024-01-27T14:44:37.660Z,1.33
2024-01-27T14:47:07.913Z,1.50
2024-01-27T14:49:37.850Z,1.30
2024-01-27T14:52:07.957Z,0.90
2024-01-27T14:54:36.416Z,1.10
2024-01-27T14:57:04.943Z,1.50
2024-01-27T14:59:33.999Z,1.70
2024-01-27T15:02:01.939Z,1.20
2024-01-27T15:04:31.239Z,1.60
2024-01-27T15:06:59.668Z,1.40
2024-01-27T15:09:27.925Z,1.40
2024-01-27T15:11:55.861Z,1.70
2024-01-27T15:14:23.768Z,2.03
2024-01-27T15:16:51.643Z,2.13
2024-01-27T15:19:19.953Z,2.10
2024-01-27T15:21:49.270Z,2.10
2024-01-27T15:24:17.115Z,1.80
2024-01-27T15:26:45.019Z,2.10
2024-01-27T15:29:13.345Z,2.80
2024-01-27T15:31:41.209Z,2.20
2024-01-27T15:34:09.911Z,1.93
2024-01-27T15:36:37.989Z,2.07
2024-01-27T15:39:09.135Z,1.93
2024-01-27T15:41:39.882Z,1.77
2024-01-27T15:44:09.012Z,2.07
2024-01-27T15:46:36.923Z,1.90
2024-01-27T15:49:04.932Z,2.30
2024-01-27T15:51:32.839Z,2.30
2024-01-27T15:54:00.836Z,2.63
2024-01-27T15:56:30.107Z,2.43
2024-01-27T15:58:57.888Z,2.53
2024-01-27T16:01:25.666Z,2.67
2024-01-27T16:03:53.500Z,3.03
2024-01-27T16:06:22.377Z,2.93
2024-01-27T16:08:50.307Z,3.30
2024-01-27T16:11:18.188Z,3.47
2024-01-27T16:13:49.928Z,3.53
2024-01-27T16:16:20.814Z,3.30
2024-01-27T16:18:48.818Z,3.83
2024-01-27T16:21:17.306Z,3.67
2024-01-27T16:23:45.264Z,3.30
2024-01-27T16:26:13.520Z,3.57
2024-01-27T16:28:41.995Z,3.30
2024-01-27T16:31:11.110Z,3.43
2024-01-27T16:33:38.958Z,3.20
2024-01-27T16:36:08.260Z,3.20
2024-01-27T16:38:36.484Z,3.00
2024-01-27T16:41:04.411Z,3.27
2024-01-27T16:43:32.274Z,3.20
2024-01-27T16:46:00.105Z,3.00
2024-01-27T16:48:29.455Z,3.17
2024-01-27T16:50:57.442Z,3.00
2024-01-27T16:53:25.272Z,3.20
2024-01-27T16:55:53.191Z,3.60
2024-01-27T16:58:21.042Z,2.90
2024-01-27T17:00:49.060Z,3.40
2024-01-27T17:03:17.121Z,3.27
2024-01-27T17:05:46.439Z,2.93
2024-01-27T17:08:14.340Z,3.50
2024-01-27T17:10:42.179Z,3.80
2024-01-27T17:13:10.052Z,4.03
2024-01-27T17:15:38.847Z,4.80
2024-01-27T17:18:07.672Z,4.70
2024-01-27T17:20:35.603Z,4.27
2024-01-27T17:23:05.089Z,4.63
2024-01-27T17:25:32.966Z,5.80
2024-01-27T17:28:00.790Z,5.97
2024-01-27T17:30:29.209Z,5.87
2024-01-27T17:32:57.171Z,6.50
2024-01-27T17:35:25.864Z,6.67
2024-01-27T17:37:54.230Z,7.53
2024-01-27T17:40:23.714Z,6.93
2024-01-27T17:42:51.879Z,7.50
2024-01-27T17:45:19.863Z,8.53
2024-01-27T17:47:50.684Z,7.10
2024-01-27T17:50:18.820Z,8.50
2024-01-27T17:52:46.798Z,7.87
2024-01-27T17:55:14.689Z,8.13
2024-01-27T17:57:44.151Z,8.27
2024-01-27T18:00:16.317Z,6.73
2024-01-27T18:02:44.507Z,8.33
2024-01-27T18:05:12.349Z,8.10
2024-01-27T18:07:40.650Z,7.83
2024-01-27T18:10:10.479Z,7.20
2024-01-27T18:12:42.617Z,6.63
2024-01-27T18:15:12.936Z,7.03
2024-01-27T18:17:41.076Z,6.17
2024-01-27T18:20:11.886Z,6.57
2024-01-27T18:22:39.893Z,6.27
2024-01-27T18:25:09.570Z,5.63
2024-01-27T18:27:37.602Z,6.40
2024-01-27T18:30:09.964Z,6.20
2024-01-27T18:32:39.725Z,5.63
2024-01-27T18:35:08.638Z,5.77
2024-01-27T18:37:36.924Z,5.00
2024-01-27T18:40:05.964Z,4.13
2024-01-27T18:42:34.552Z,4.13
2024-01-27T18:45:04.661Z,4.33
2024-01-27T18:47:33.235Z,3.27
2024-01-27T18:50:02.813Z,3.00
2024-01-27T18:52:32.127Z,2.87
2024-01-27T18:55:00.053Z,2.53
2024-01-27T18:57:27.923Z,2.63
2024-01-27T18:59:55.901Z,2.87
2024-01-27T19:02:23.971Z,2.30
2024-01-27T19:04:52.368Z,2.40
2024-01-27T19:07:21.686Z,2.03
2024-01-27T19:09:49.498Z,3.10
2024-01-27T19:12:17.476Z,2.37
2024-01-27T19:14:45.403Z,2.30
2024-01-27T19:17:13.282Z,1.87
2024-01-27T19:19:41.202Z,2.33
2024-01-27T19:22:09.232Z,1.97
2024-01-27T19:24:38.528Z,2.37
2024-01-27T19:27:06.562Z,2.40
2024-01-27T19:29:34.467Z,2.17
2024-01-27T19:32:03.050Z,2.03
2024-01-27T19:34:32.472Z,1.97
2024-01-27T19:37:00.666Z,1.50
2024-01-27T19:39:28.702Z,1.80
2024-01-27T19:41:57.949Z,2.20
2024-01-27T19:44:27.796Z,2.30
2024-01-27T19:46:55.769Z,1.67
2024-01-27T19:49:24.277Z,2.17
2024-01-27T19:51:52.381Z,1.90
2024-01-27T19:54:20.369Z,2.23
2024-01-27T19:56:48.223Z,2.20
2024-01-27T19:59:17.461Z,2.40
2024-01-27T20:01:45.515Z,1.80
2024-01-27T20:04:13.594Z,2.17
2024-01-27T20:06:41.697Z,2.07
2024-01-27T20:09:16.128Z,2.13
2024-01-27T20:11:45.216Z,2.43
2024-01-27T20:14:13.543Z,1.77
2024-01-27T20:16:47.475Z,2.00
2024-01-27T20:19:15.536Z,1.50
2024-01-27T20:21:43.777Z,1.97
2024-01-27T20:24:13.570Z,1.60
2024-01-27T20:26:43.102Z,1.97
2024-01-27T20:29:11.128Z,2.37
2024-01-27T20:31:39.023Z,1.80
2024-01-27T20:34:08.396Z,1.90
2024-01-27T20:36:36.562Z,2.10
2024-01-27T20:39:04.448Z,2.13
2024-01-27T20:41:32.395Z,2.00
2024-01-27T20:44:01.370Z,2.33
2024-01-27T20:46:29.235Z,2.10
2024-01-27T20:48:57.725Z,1.70
2024-01-27T20:51:27.258Z,1.80
2024-01-27T20:53:55.159Z,1.57
2024-01-27T20:56:23.214Z,2.30
2024-01-27T20:58:51.097Z,1.90
2024-01-27T21:01:20.316Z,1.97
2024-01-27T21:03:48.285Z,1.90
2024-01-27T21:06:16.253Z,1.60
2024-01-27T21:08:45.507Z,2.07
2024-01-27T21:11:14.737Z,1.87
2024-01-27T21:13:42.650Z,1.80
2024-01-27T21:16:11.277Z,1.67
2024-01-27T21:18:39.311Z,1.77
2024-01-27T21:21:07.319Z,1.90
2024-01-27T21:23:35.462Z,1.93
2024-01-27T21:26:04.916Z,1.60
2024-01-27T21:28:32.889Z,1.73
2024-01-27T21:31:00.888Z,2.10
2024-01-27T21:33:29.080Z,1.80
2024-01-27T21:35:57.154Z,1.50
2024-01-27T21:38:25.024Z,1.83
2024-01-27T21:40:52.920Z,1.67
2024-01-27T21:43:22.185Z,2.33
2024-01-27T21:45:50.042Z,1.80
2024-01-27T21:48:18.412Z,2.00
2024-01-27T21:50:46.355Z,1.73
2024-01-27T21:53:14.214Z,1.50
2024-01-27T21:55:42.044Z,2.60
2024-01-27T21:58:09.967Z,2.30
2024-01-27T22:00:39.722Z,2.23
2024-01-27T22:03:07.986Z,2.10
2024-01-27T22:05:35.878Z,1.80
2024-01-27T22:08:04.746Z,2.30
2024-01-27T22:10:33.174Z,2.50
2024-01-27T22:13:01.111Z,2.80
2024-01-27T22:15:28.957Z,2.93
2024-01-27T22:17:58.285Z,2.90
2024-01-27T22:20:26.243Z,2.77
2024-01-27T22:22:54.213Z,3.13
2024-01-27T22:25:22.153Z,3.00
2024-01-27T22:27:49.972Z,2.73
2024-01-27T22:30:17.874Z,2.67
2024-01-27T22:32:45.881Z,2.80
2024-01-27T22:35:15.318Z,3.33
2024-01-27T22:37:43.110Z,3.00
2024-01-27T22:40:12.127Z,2.77
2024-01-27T22:42:40.097Z,2.93
2024-01-27T22:45:09.292Z,3.23
2024-01-27T22:47:37.419Z,2.63
2024-01-27T22:50:05.906Z,2.40
2024-01-27T22:52:35.161Z,3.57
2024-01-27T22:55:03.824Z,3.23
2024-01-27T22:57:32.833Z,3.30
2024-01-27T23:00:01.212Z,3.13
2024-01-27T23:02:29.084Z,3.40
2024-01-27T23:04:57.135Z,3.67
2024-01-27T23:07:25.371Z,3.23
2024-01-27T23:09:54.714Z,3.23
2024-01-27T23:12:22.577Z,3.60
2024-01-27T23:14:50.590Z,3.60
2024-01-27T23:17:18.603Z,3.10
2024-01-27T23:19:46.618Z,2.73
2024-01-27T23:22:14.443Z,3.10
2024-01-27T23:24:42.321Z,3.33
2024-01-27T23:27:11.797Z,3.17
2024-01-27T23:29:40.680Z,3.70
2024-01-27T23:32:08.885Z,3.60
2024-01-27T23:34:36.822Z,3.30
2024-01-27T23:37:05.056Z,3.37
2024-01-27T23:39:33.042Z,3.43
2024-01-27T23:42:00.909Z,3.30
2024-01-27T23:44:30.307Z,3.30
2024-01-27T23:46:58.262Z,3.80
2024-01-27T23:49:26.214Z,3.43
2024-01-27T23:51:54.862Z,3.40
2024-01-27T23:54:22.845Z,3.07
2024-01-27T23:56:50.682Z,4.33
2024-01-27T23:59:19.553Z,3.57
